createdAt,value
2018-12-12T00:00:23.539Z,8.27
2018-12-12T00:02:52.071Z,8.30
2018-12-12T00:05:20.511Z,8.50
2018-12-12T00:07:48.914Z,8.00
2018-12-12T00:10:20.502Z,8.00
2018-12-12T00:12:49.647Z,9.40
2018-12-12T00:15:19.306Z,11.70
2018-12-12T00:17:48.575Z,6.80
2018-12-12T00:20:16.998Z,10.80
2018-12-12T00:22:45.429Z,7.07
2018-12-12T00:25:13.800Z,8.77
2018-12-12T00:27:42.305Z,7.83
2018-12-12T00:30:10.968Z,7.63
2018-12-12T00:32:39.480Z,8.27
2018-12-12T00:35:07.994Z,7.90
2018-12-12T00:37:36.494Z,9.00
2018-12-12T00:40:05.192Z,7.43
2018-12-12T00:42:33.712Z,8.60
2018-12-12T00:45:02.112Z,8.13
2018-12-12T00:47:30.543Z,10.13
2018-12-12T00:49:59.003Z,9.20
2018-12-12T00:52:27.392Z,8.03
2018-12-12T00:54:55.972Z,10.20
2018-12-12T00:57:24.864Z,11.53
2018-12-12T00:59:53.289Z,8.83
2018-12-12T01:02:21.701Z,9.40
2018-12-12T01:04:50.271Z,9.47
2018-12-12T01:07:18.811Z,11.27
2018-12-12T01:09:47.225Z,9.77
2018-12-12T01:12:15.749Z,9.73
2018-12-12T01:14:44.165Z,9.70
2018-12-12T01:17:12.577Z,9.27
2018-12-12T01:19:40.989Z,8.67
2018-12-12T01:22:09.387Z,10.87
2018-12-12T01:24:37.803Z,13.60
2018-12-12T01:27:06.352Z,12.07
2018-12-12T01:29:34.760Z,9.63
2018-12-12T01:32:03.331Z,12.53
2018-12-12T01:34:31.717Z,10.27
2018-12-12T01:37:00.436Z,14.03
2018-12-12T01:39:28.820Z,12.77
2018-12-12T01:41:57.228Z,15.10
2018-12-12T01:44:25.663Z,10.70
2018-12-12T01:46:54.360Z,11.67
2018-12-12T01:49:22.774Z,12.80
2018-12-12T01:51:51.193Z,13.10
2018-12-12T01:54:19.732Z,9.67
2018-12-12T01:56:48.118Z,10.00
2018-12-12T01:59:16.544Z,9.03
2018-12-12T02:01:44.938Z,11.47
2018-12-12T02:04:13.602Z,14.27
2018-12-12T02:06:42.010Z,11.13
2018-12-12T02:09:10.469Z,12.67
2018-12-12T02:11:38.867Z,12.60
2018-12-12T02:14:07.266Z,10.97
2018-12-12T02:16:35.677Z,11.83
2018-12-12T02:19:04.075Z,14.90
2018-12-12T02:21:32.495Z,14.70
2018-12-12T02:24:00.904Z,16.03
2018-12-12T02:26:29.327Z,13.30
2018-12-12T02:28:57.812Z,14.40
2018-12-12T02:31:26.252Z,15.47
2018-12-12T02:33:54.659Z,15.17
2018-12-12T02:36:23.081Z,17.27
2018-12-12T02:38:51.504Z,15.60
2018-12-12T02:41:19.916Z,16.73
2018-12-12T02:43:48.327Z,17.97
2018-12-12T02:46:16.713Z,17.90
2018-12-12T02:48:45.152Z,18.00
2018-12-12T02:51:13.574Z,21.40
2018-12-12T02:53:41.996Z,19.63
2018-12-12T02:56:10.421Z,18.10
2018-12-12T02:58:38.806Z,17.33
2018-12-12T03:01:07.251Z,18.83
2018-12-12T03:03:35.651Z,17.97
2018-12-12T03:06:04.083Z,17.50
2018-12-12T03:08:32.485Z,24.33
2018-12-12T03:11:00.994Z,19.70
2018-12-12T03:13:29.392Z,18.77
2018-12-12T03:15:57.855Z,24.33
2018-12-12T03:18:26.239Z,25.37
2018-12-12T03:20:54.656Z,21.47
2018-12-12T03:23:23.079Z,21.30
2018-12-12T03:25:51.465Z,25.10
2018-12-12T03:28:19.868Z,21.00
2018-12-12T03:30:48.275Z,24.20
2018-12-12T03:33:16.699Z,24.60
2018-12-12T03:35:45.085Z,21.93
2018-12-12T03:38:13.493Z,22.60
2018-12-12T03:40:42.316Z,22.10
2018-12-12T03:43:10.723Z,24.23
2018-12-12T03:45:39.127Z,22.80
2018-12-12T03:48:07.543Z,23.87
2018-12-12T03:50:35.967Z,28.27
2018-12-12T03:53:04.369Z,22.73
2018-12-12T03:55:32.791Z,24.30
2018-12-12T03:58:01.202Z,23.30
2018-12-12T04:00:29.638Z,25.33
2018-12-12T04:02:58.036Z,23.83
2018-12-12T04:05:26.552Z,22.70
2018-12-12T04:07:54.951Z,24.83
2018-12-12T04:10:23.368Z,24.30
2018-12-12T04:12:51.789Z,22.93
2018-12-12T04:15:20.334Z,24.73
2018-12-12T04:17:48.752Z,21.70
2018-12-12T04:20:17.159Z,23.17
2018-12-12T04:22:45.580Z,26.87
2018-12-12T04:25:14.033Z,26.93
2018-12-12T04:27:42.473Z,25.37
2018-12-12T04:30:10.982Z,21.17
2018-12-12T04:32:39.398Z,25.63
2018-12-12T04:35:08.693Z,25.10
2018-12-12T04:37:37.107Z,24.17
2018-12-12T04:40:06.102Z,19.63
2018-12-12T04:42:34.515Z,25.30
2018-12-12T04:45:02.930Z,24.80
2018-12-12T04:47:31.348Z,24.93
2018-12-12T04:49:59.788Z,23.30
2018-12-12T04:52:28.192Z,23.93
2018-12-12T04:54:56.607Z,24.80
2018-12-12T04:57:25.037Z,22.17
2018-12-12T04:59:53.456Z,24.23
2018-12-12T05:02:26.396Z,24.43
2018-12-12T05:04:55.780Z,20.90
2018-12-12T05:07:24.523Z,23.50
2018-12-12T05:09:53.146Z,23.10
2018-12-12T05:12:21.552Z,26.60
2018-12-12T05:14:49.969Z,25.67
2018-12-12T05:17:18.393Z,23.17
2018-12-12T05:19:46.787Z,23.97
2018-12-12T05:22:15.179Z,22.27
2018-12-12T05:24:43.569Z,24.37
2018-12-12T05:27:12.015Z,21.03
2018-12-12T05:29:40.457Z,22.87
2018-12-12T05:32:08.909Z,22.30
2018-12-12T05:34:37.324Z,21.10
2018-12-12T05:37:05.726Z,23.77
2018-12-12T05:39:34.135Z,22.37
2018-12-12T05:42:02.561Z,24.87
2018-12-12T05:44:30.996Z,21.73
2018-12-12T05:46:59.412Z,23.13
2018-12-12T05:49:27.900Z,21.50
2018-12-12T05:51:56.300Z,23.33
2018-12-12T05:54:24.714Z,25.07
2018-12-12T05:56:53.113Z,20.20
2018-12-12T05:59:21.525Z,28.37
2018-12-12T06:01:49.927Z,21.63
2018-12-12T06:04:18.372Z,25.70
2018-12-12T06:06:46.784Z,22.27
2018-12-12T06:09:15.170Z,29.17
2018-12-12T06:11:43.781Z,22.80
2018-12-12T06:14:12.174Z,23.47
2018-12-12T06:16:40.586Z,30.13
2018-12-12T06:19:08.991Z,27.60
2018-12-12T06:21:37.404Z,23.33
2018-12-12T06:24:05.928Z,26.13
2018-12-12T06:26:37.372Z,25.33
2018-12-12T06:29:04.903Z,22.87
2018-12-12T06:31:33.317Z,23.80
2018-12-12T06:34:01.699Z,22.77
2018-12-12T06:36:30.135Z,26.40
2018-12-12T06:38:58.533Z,25.37
2018-12-12T06:41:26.937Z,25.17
2018-12-12T06:43:55.347Z,25.90
2018-12-12T06:46:23.726Z,31.67
2018-12-12T06:48:52.191Z,25.30
2018-12-12T06:51:20.662Z,25.03
2018-12-12T06:53:49.180Z,21.63
2018-12-12T06:56:17.579Z,22.23
2018-12-12T06:58:45.993Z,27.53
2018-12-12T07:01:14.512Z,25.40
2018-12-12T07:03:42.958Z,22.63
2018-12-12T07:06:11.378Z,27.43
2018-12-12T07:08:39.783Z,26.17
2018-12-12T07:11:08.195Z,28.57
2018-12-12T07:13:36.667Z,25.53
2018-12-12T07:16:05.090Z,24.13
2018-12-12T07:18:33.503Z,25.73
2018-12-12T07:21:02.020Z,23.80
2018-12-12T07:23:30.400Z,27.90
2018-12-12T07:25:58.813Z,27.47
2018-12-12T07:28:27.241Z,29.70
2018-12-12T07:30:55.663Z,32.70
2018-12-12T07:33:24.070Z,36.30
2018-12-12T07:35:52.471Z,31.00
2018-12-12T07:38:20.918Z,30.00
2018-12-12T07:40:49.326Z,27.43
2018-12-12T07:43:17.747Z,24.70
2018-12-12T07:45:46.135Z,26.50
2018-12-12T07:48:14.543Z,27.43
2018-12-12T07:50:44.096Z,24.10
2018-12-12T07:53:12.723Z,27.07
2018-12-12T07:55:41.245Z,24.47
2018-12-12T07:58:09.667Z,22.53
2018-12-12T08:00:38.151Z,23.80
2018-12-12T08:03:06.717Z,25.37
2018-12-12T08:05:35.252Z,23.83
2018-12-12T08:08:03.769Z,23.87
2018-12-12T08:10:32.173Z,23.60
2018-12-12T08:13:00.619Z,29.57
2018-12-12T08:15:29.093Z,30.47
2018-12-12T08:17:57.482Z,36.63
2018-12-12T08:20:26.025Z,37.73
2018-12-12T08:22:55.636Z,40.47
2018-12-12T08:25:24.395Z,32.50
2018-12-12T08:27:52.807Z,27.93
2018-12-12T08:30:21.219Z,27.90
2018-12-12T08:32:49.737Z,28.67
2018-12-12T08:35:18.148Z,25.70
2018-12-12T08:37:46.559Z,26.30
2018-12-12T08:40:15.141Z,23.50
2018-12-12T08:42:43.545Z,23.43
2018-12-12T08:45:11.936Z,26.07
2018-12-12T08:47:40.368Z,26.03
2018-12-12T08:50:09.036Z,31.80
2018-12-12T08:52:37.484Z,27.40
2018-12-12T08:55:06.288Z,23.70
2018-12-12T08:57:34.838Z,27.07
2018-12-12T09:00:03.551Z,24.47
2018-12-12T09:02:32.092Z,27.10
2018-12-12T09:05:00.492Z,31.63
2018-12-12T09:07:28.904Z,30.27
2018-12-12T09:09:57.343Z,27.17
2018-12-12T09:12:25.749Z,25.50
2018-12-12T09:14:54.138Z,26.50
2018-12-12T09:17:22.554Z,28.83
2018-12-12T09:19:50.968Z,26.43
2018-12-12T09:22:19.382Z,25.97
2018-12-12T09:24:47.854Z,25.97
2018-12-12T09:27:16.236Z,30.17
2018-12-12T09:29:44.714Z,26.23
2018-12-12T09:32:13.117Z,25.97
2018-12-12T09:34:41.582Z,27.67
2018-12-12T09:37:10.000Z,24.73
2018-12-12T09:39:38.583Z,31.00
2018-12-12T09:42:07.148Z,28.87
2018-12-12T09:44:35.872Z,27.93
2018-12-12T09:47:04.500Z,22.23
2018-12-12T09:49:32.984Z,23.27
2018-12-12T09:52:01.480Z,25.60
2018-12-12T09:54:29.889Z,28.23
2018-12-12T09:56:58.326Z,23.53
2018-12-12T09:59:26.794Z,28.17
2018-12-12T10:01:55.194Z,30.27
2018-12-12T10:04:23.600Z,28.97
2018-12-12T10:06:52.004Z,29.77
2018-12-12T10:09:20.470Z,29.10
2018-12-12T10:11:48.927Z,27.43
2018-12-12T10:14:17.364Z,25.30
2018-12-12T10:16:45.779Z,26.90
2018-12-12T10:19:14.207Z,28.60
2018-12-12T10:21:42.805Z,30.43
2018-12-12T10:24:11.580Z,26.60
2018-12-12T10:26:40.129Z,24.90
2018-12-12T10:29:08.696Z,25.37
2018-12-12T10:31:37.130Z,26.43
2018-12-12T10:34:05.656Z,28.67
2018-12-12T10:36:35.262Z,28.03
2018-12-12T10:39:07.000Z,29.83
2018-12-12T10:41:36.180Z,25.90
2018-12-12T10:44:04.602Z,28.23
2018-12-12T10:46:33.034Z,27.63
2018-12-12T10:49:01.598Z,24.57
2018-12-12T10:51:30.054Z,28.37
2018-12-12T10:53:58.561Z,28.87
2018-12-12T10:56:27.005Z,27.17
2018-12-12T10:58:55.439Z,30.57
2018-12-12T11:01:29.707Z,30.23
2018-12-12T11:03:58.267Z,29.53
2018-12-12T11:06:26.677Z,31.13
2018-12-12T11:08:55.075Z,31.07
2018-12-12T11:11:23.459Z,29.13
2018-12-12T11:13:51.897Z,28.17
2018-12-12T11:16:20.280Z,31.40
2018-12-12T11:18:48.697Z,32.00
2018-12-12T11:21:17.245Z,30.37
2018-12-12T11:23:45.653Z,29.97
2018-12-12T11:26:14.189Z,34.73
2018-12-12T11:28:42.633Z,37.30
2018-12-12T11:31:11.033Z,32.37
2018-12-12T11:33:39.479Z,29.83
2018-12-12T11:36:08.018Z,29.83
2018-12-12T11:38:36.407Z,29.83
2018-12-12T11:41:05.472Z,30.00
2018-12-12T11:43:33.987Z,27.77
2018-12-12T11:46:02.796Z,29.77
2018-12-12T11:48:31.239Z,28.87
2018-12-12T11:50:59.648Z,28.17
2018-12-12T11:53:28.048Z,32.30
2018-12-12T11:55:56.480Z,29.60
2018-12-12T11:58:25.113Z,31.23
2018-12-12T12:00:53.531Z,29.13
2018-12-12T12:03:21.958Z,31.37
2018-12-12T12:05:50.356Z,28.83
2018-12-12T12:08:25.641Z,28.93
2018-12-12T12:10:54.052Z,29.77
2018-12-12T12:13:22.494Z,28.30
2018-12-12T12:15:50.903Z,30.63
2018-12-12T12:18:19.434Z,28.67
2018-12-12T12:20:47.847Z,31.07
2018-12-12T12:23:16.315Z,33.20
2018-12-12T12:25:44.732Z,32.80
2018-12-12T12:28:13.177Z,31.00
2018-12-12T12:30:41.573Z,29.07
2018-12-12T12:33:09.999Z,32.03
2018-12-12T12:35:38.423Z,29.10
2018-12-12T12:38:06.833Z,29.67
2018-12-12T12:40:35.265Z,30.57
2018-12-12T12:43:03.863Z,29.67
2018-12-12T12:45:32.443Z,29.90
2018-12-12T12:48:00.945Z,30.27
2018-12-12T12:50:29.531Z,27.57
2018-12-12T12:52:57.960Z,31.13
2018-12-12T12:55:26.489Z,30.57
2018-12-12T12:57:54.905Z,32.33
2018-12-12T13:00:23.331Z,28.83
2018-12-12T13:02:51.732Z,30.80
2018-12-12T13:05:20.143Z,34.63
2018-12-12T13:07:48.626Z,37.60
2018-12-12T13:10:17.200Z,36.77
2018-12-12T13:12:46.324Z,45.80
2018-12-12T13:15:15.247Z,28.67
2018-12-12T13:17:43.801Z,30.77
2018-12-12T13:20:12.414Z,27.13
2018-12-12T13:22:40.837Z,29.93
2018-12-12T13:25:09.382Z,28.67
2018-12-12T13:27:37.840Z,27.47
2018-12-12T13:30:06.521Z,28.23
2018-12-12T13:32:34.949Z,29.50
2018-12-12T13:35:03.377Z,29.47
2018-12-12T13:37:31.813Z,28.70
2018-12-12T13:40:00.295Z,30.97
2018-12-12T13:42:28.721Z,29.33
2018-12-12T13:44:57.137Z,30.67
2018-12-12T13:47:25.551Z,27.13
2018-12-12T13:49:55.225Z,29.57
2018-12-12T13:52:23.942Z,27.77
2018-12-12T13:54:52.369Z,32.43
2018-12-12T13:57:20.919Z,30.87
2018-12-12T13:59:49.479Z,29.07
2018-12-12T14:02:17.941Z,35.17
2018-12-12T14:04:46.351Z,28.83
2018-12-12T14:07:14.771Z,30.07
2018-12-12T14:09:43.198Z,28.37
2018-12-12T14:12:17.092Z,31.03
2018-12-12T14:14:42.139Z,26.33
2018-12-12T14:17:10.523Z,29.53
2018-12-12T14:19:45.393Z,26.13
2018-12-12T14:22:13.855Z,25.07
2018-12-12T14:24:42.266Z,23.93
2018-12-12T14:27:10.712Z,26.83
2018-12-12T14:29:39.173Z,23.03
2018-12-12T14:32:07.687Z,23.43
2018-12-12T14:34:36.228Z,25.57
2018-12-12T14:37:04.788Z,19.77
2018-12-12T14:39:33.200Z,18.43
2018-12-12T14:42:01.662Z,18.13
2018-12-12T14:44:30.064Z,16.13
2018-12-12T14:46:58.542Z,16.37
2018-12-12T14:49:27.026Z,18.97
2018-12-12T14:51:55.504Z,16.90
2018-12-12T14:54:23.977Z,19.47
2018-12-12T14:56:52.440Z,19.07
2018-12-12T14:59:20.841Z,17.43
2018-12-12T15:01:49.286Z,14.70
2018-12-12T15:04:17.716Z,16.40
2018-12-12T15:06:46.147Z,15.40
2018-12-12T15:09:14.609Z,18.37
2018-12-12T15:11:43.049Z,18.57
2018-12-12T15:14:11.563Z,18.73
2018-12-12T15:16:40.072Z,17.70
2018-12-12T15:19:08.671Z,15.87
2018-12-12T15:21:37.142Z,16.50
2018-12-12T15:24:05.591Z,15.97
2018-12-12T15:26:34.148Z,16.97
2018-12-12T15:29:02.562Z,18.33
2018-12-12T15:31:30.978Z,16.37
2018-12-12T15:33:59.413Z,16.90
2018-12-12T15:36:27.842Z,12.60
2018-12-12T15:38:56.336Z,15.27
2018-12-12T15:41:26.090Z,15.00
2018-12-12T15:43:54.533Z,18.83
2018-12-12T15:46:22.996Z,16.77
2018-12-12T15:48:51.420Z,24.30
2018-12-12T15:51:19.917Z,22.43
2018-12-12T15:53:48.327Z,23.27
2018-12-12T15:56:16.873Z,25.13
2018-12-12T15:58:48.642Z,19.27
2018-12-12T16:01:17.078Z,18.83
2018-12-12T16:03:45.547Z,21.73
2018-12-12T16:06:14.115Z,18.27
2018-12-12T16:08:42.555Z,16.37
2018-12-12T16:11:11.050Z,19.03
2018-12-12T16:13:39.538Z,19.20
2018-12-12T16:16:08.022Z,17.13
2018-12-12T16:18:36.563Z,32.40
2018-12-12T16:21:05.173Z,53.87
2018-12-12T16:23:33.665Z,57.10
2018-12-12T16:26:02.247Z,31.50
2018-12-12T16:28:30.771Z,21.73
2018-12-12T16:30:59.357Z,21.30
2018-12-12T16:33:27.867Z,20.80
2018-12-12T16:35:57.329Z,18.10
2018-12-12T16:38:25.865Z,18.37
2018-12-12T16:40:55.039Z,18.17
2018-12-12T16:43:23.643Z,22.70
2018-12-12T16:45:52.147Z,16.80
2018-12-12T16:48:21.169Z,18.53
2018-12-12T16:50:49.789Z,21.17
2018-12-12T16:53:18.369Z,20.80
2018-12-12T16:55:46.873Z,17.93
2018-12-12T16:58:15.401Z,17.67
2018-12-12T17:00:44.336Z,17.30
2018-12-12T17:03:17.101Z,19.30
2018-12-12T17:05:45.623Z,29.40
2018-12-12T17:08:14.655Z,35.10
2018-12-12T17:10:43.214Z,35.50
2018-12-12T17:13:11.791Z,29.93
2018-12-12T17:15:40.509Z,30.40
2018-12-12T17:18:09.535Z,22.10
2018-12-12T17:20:38.057Z,26.37
2018-12-12T17:23:06.521Z,24.80
2018-12-12T17:25:35.053Z,27.03
2018-12-12T17:28:04.567Z,27.13
2018-12-12T17:30:33.061Z,27.03
2018-12-12T17:33:01.899Z,25.30
2018-12-12T17:35:30.409Z,20.97
2018-12-12T17:37:58.910Z,28.33
2018-12-12T17:40:27.633Z,20.50
2018-12-12T17:42:56.590Z,24.47
2018-12-12T17:45:25.136Z,24.93
2018-12-12T17:47:53.672Z,22.73
2018-12-12T17:50:22.163Z,25.53
2018-12-12T17:52:50.687Z,23.40
2018-12-12T17:55:19.171Z,24.83
2018-12-12T17:57:50.130Z,20.37
2018-12-12T18:00:18.666Z,19.23
2018-12-12T18:02:47.242Z,17.27
2018-12-12T18:05:15.834Z,18.93
2018-12-12T18:07:44.423Z,19.73
2018-12-12T18:10:13.355Z,20.30
2018-12-12T18:12:42.484Z,19.60
2018-12-12T18:15:11.704Z,17.30
2018-12-12T18:17:40.212Z,18.23
2018-12-12T18:20:08.965Z,18.97
2018-12-12T18:22:37.506Z,19.37
2018-12-12T18:27:37.604Z,17.47
2018-12-12T18:30:07.277Z,16.13
2018-12-12T18:32:36.270Z,17.00
2018-12-12T18:35:05.134Z,20.20
2018-12-12T18:40:07.451Z,17.23
2018-12-12T18:42:36.623Z,20.47
2018-12-12T18:45:06.088Z,22.37
2018-12-12T18:47:34.633Z,21.77
2018-12-12T18:50:03.314Z,20.57
2018-12-12T18:52:32.354Z,22.80
2018-12-12T18:55:01.524Z,20.43
2018-12-12T18:57:31.692Z,22.77
2018-12-12T19:00:00.337Z,22.47
2018-12-12T19:02:29.164Z,22.03
2018-12-12T19:04:58.042Z,22.80
2018-12-12T19:07:26.557Z,22.93
2018-12-12T19:12:29.732Z,23.33
2018-12-12T19:15:02.836Z,22.97
2018-12-12T19:17:31.772Z,21.13
2018-12-12T19:20:02.754Z,22.47
2018-12-12T19:22:36.061Z,19.27
2018-12-12T19:25:06.191Z,22.73
2018-12-12T19:27:36.844Z,24.90
2018-12-12T19:30:07.410Z,22.73
2018-12-12T19:32:36.604Z,21.97
2018-12-12T19:35:06.454Z,22.53
2018-12-12T19:37:35.360Z,22.63
2018-12-12T19:40:04.879Z,24.37
2018-12-12T19:42:34.814Z,23.27
2018-12-12T19:45:03.762Z,22.57
2018-12-12T19:47:32.655Z,24.60
2018-12-12T19:50:01.907Z,22.53
2018-12-12T19:52:30.443Z,40.83
2018-12-12T19:54:59.515Z,36.97
2018-12-12T19:57:28.081Z,40.27
2018-12-12T19:59:57.719Z,40.17
2018-12-12T20:02:27.797Z,32.53
2018-12-12T20:04:57.650Z,30.23
2018-12-12T20:07:27.415Z,25.53
2018-12-12T20:12:28.737Z,25.50
2018-12-12T20:14:57.912Z,24.37
2018-12-12T20:17:27.844Z,22.63
2018-12-12T20:19:56.869Z,24.63
2018-12-12T20:22:25.463Z,24.30
2018-12-12T20:24:54.060Z,25.83
2018-12-12T20:27:22.799Z,26.20
2018-12-12T20:29:52.740Z,25.23
2018-12-12T20:32:22.464Z,29.80
2018-12-12T20:34:51.088Z,28.97
2018-12-12T20:37:20.948Z,30.40
2018-12-12T20:39:50.600Z,29.90
2018-12-12T20:42:19.942Z,32.03
2018-12-12T20:44:48.606Z,27.07
2018-12-12T20:47:18.416Z,26.70
2018-12-12T20:49:47.567Z,28.70
2018-12-12T20:52:16.386Z,26.90
2018-12-12T20:57:16.421Z,25.70
2018-12-12T20:59:45.920Z,24.53
2018-12-12T21:02:16.527Z,25.33
2018-12-12T21:04:45.487Z,24.10
2018-12-12T21:07:15.082Z,25.67
2018-12-12T21:09:43.790Z,24.80
2018-12-12T21:12:13.072Z,23.77
2018-12-12T21:17:14.189Z,24.97
2018-12-12T21:19:43.062Z,24.13
2018-12-12T21:22:12.001Z,21.97
2018-12-12T21:24:40.550Z,24.03
2018-12-12T21:27:09.503Z,24.70
2018-12-12T21:29:39.578Z,24.97
2018-12-12T21:32:08.155Z,24.10
2018-12-12T21:34:37.257Z,24.47
2018-12-12T21:37:06.050Z,27.57
2018-12-12T21:39:36.825Z,24.47
2018-12-12T21:42:05.414Z,23.80
2018-12-12T21:44:34.815Z,27.37
2018-12-12T21:47:03.335Z,28.47
2018-12-12T21:49:32.474Z,25.17
2018-12-12T21:52:00.978Z,25.50
2018-12-12T21:54:30.083Z,30.50
2018-12-12T21:56:58.678Z,24.57
2018-12-12T21:59:27.178Z,26.03
2018-12-12T22:01:56.446Z,24.97
2018-12-12T22:04:25.182Z,28.13
2018-12-12T22:06:53.766Z,24.30
2018-12-12T22:09:22.610Z,24.50
2018-12-12T22:11:51.163Z,25.37
2018-12-12T22:14:19.782Z,25.47
2018-12-12T22:16:48.660Z,24.27
2018-12-12T22:19:17.173Z,24.97
2018-12-12T22:21:45.664Z,20.97
2018-12-12T22:24:14.118Z,20.67
2018-12-12T22:26:42.594Z,23.10
2018-12-12T22:29:11.144Z,20.23
2018-12-12T22:31:39.571Z,13.87
2018-12-12T22:34:08.000Z,7.77
2018-12-12T22:36:36.450Z,11.03
2018-12-12T22:39:07.576Z,7.17
2018-12-12T22:41:36.138Z,8.07
2018-12-12T22:44:04.568Z,9.70
2018-12-12T22:46:33.061Z,8.63
2018-12-12T22:49:01.506Z,9.97
2018-12-12T22:51:29.937Z,7.40
2018-12-12T22:53:58.372Z,8.40
2018-12-12T22:56:26.814Z,7.97
2018-12-12T22:58:55.232Z,9.27
2018-12-12T23:01:25.212Z,8.30
2018-12-12T23:03:53.651Z,7.67
2018-12-12T23:06:22.193Z,6.77
2018-12-12T23:08:50.679Z,6.23
2018-12-12T23:11:19.122Z,7.60
2018-12-12T23:13:47.529Z,5.50
2018-12-12T23:16:15.936Z,4.67
2018-12-12T23:18:44.341Z,4.90
2018-12-12T23:21:12.805Z,5.37
2018-12-12T23:23:41.207Z,5.13
2018-12-12T23:26:09.616Z,6.20
2018-12-12T23:28:38.031Z,4.70
2018-12-12T23:31:06.461Z,5.07
2018-12-12T23:33:34.998Z,4.60
2018-12-12T23:36:03.437Z,4.93
2018-12-12T23:38:31.808Z,4.30
2018-12-12T23:41:00.205Z,4.30
2018-12-12T23:43:28.624Z,4.47
2018-12-12T23:45:57.139Z,4.93
2018-12-12T23:48:25.545Z,5.23
2018-12-12T23:50:53.936Z,7.07
2018-12-12T23:53:22.355Z,4.50
2018-12-12T23:55:50.761Z,4.57
2018-12-12T23:58:19.146Z,5.17
